Time;durP1;ratioP1;P1;durP2;ratioP2;P2;SDS_P1;SDS_P2;PMS_P1;PMS_P2;Temp;Humidity;BMP_temperature;BMP_pressure;BME280_temperature;BME280_humidity;BME280_pressure;Samples;Min_cycle;Max_cycle;Signal;HPM_P1;HPM_P2
2022/03/28 00:00:10;;;;;;;0.20;0.20;;;;;;;10.30;84.07;101177.44;5093629;28;20032;-74
2022/03/28 00:02:41;;;;;;;0.20;0.20;;;;;;;10.33;84.63;101169.22;5093793;28;20020;-74
2022/03/28 00:05:08;;;;;;;0.20;0.20;;;;;;;10.38;85.11;101166.22;5094054;28;20028;-75
2022/03/28 00:07:37;;;;;;;0.20;0.20;;;;;;;10.39;86.75;101159.53;5093488;28;20031;-75
2022/03/28 00:10:03;;;;;;;0.20;0.20;;;;;;;10.48;87.71;101165.84;5094367;28;20422;-74
2022/03/28 00:12:29;;;;;;;0.20;0.20;;;;;;;10.53;88.08;101161.22;5094847;28;20486;-75
2022/03/28 00:14:57;;;;;;;0.20;0.20;;;;;;;10.51;88.39;101149.63;5094406;28;20190;-75
2022/03/28 00:17:25;;;;;;;0.20;0.20;;;;;;;10.53;88.77;101158.44;5095645;28;20068;-75
2022/03/28 00:19:51;;;;;;;0.20;0.20;;;;;;;10.62;88.40;101145.28;5094866;28;20043;-75
2022/03/28 00:22:16;;;;;;;0.20;0.20;;;;;;;10.70;87.39;101138.81;5096307;28;20020;-75
2022/03/28 00:24:42;;;;;;;0.20;0.20;;;;;;;10.62;86.74;101136.94;5097372;28;20061;-75
2022/03/28 00:27:14;;;;;;;0.20;0.20;;;;;;;10.72;85.55;101140.13;5096892;28;20033;-74
2022/03/28 00:29:39;;;;;;;0.20;0.20;;;;;;;10.71;84.53;101126.56;5093331;28;20040;-75
2022/03/28 00:32:05;;;;;;;0.20;0.20;;;;;;;10.75;83.55;101116.34;5093234;28;20081;-75
2022/03/28 00:34:31;;;;;;;0.20;0.20;;;;;;;10.60;83.37;101116.97;5093168;28;20466;-75
2022/03/28 00:36:59;;;;;;;0.20;0.20;;;;;;;10.61;83.35;101093.56;5092779;28;20024;-75
2022/03/28 00:39:25;;;;;;;0.20;0.20;;;;;;;10.71;82.38;101115.44;5093379;28;20058;-75
2022/03/28 00:41:51;;;;;;;0.20;0.20;;;;;;;10.69;82.00;101109.38;5093819;28;20024;-76
2022/03/28 00:44:18;;;;;;;0.20;0.20;;;;;;;10.65;80.66;101103.69;5094764;28;20039;-75
2022/03/28 00:46:49;;;;;;;0.20;0.20;;;;;;;10.66;79.45;101098.94;5098014;28;20560;-75
2022/03/28 00:49:21;;;;;;;0.20;0.20;;;;;;;10.59;76.79;101098.66;5096031;28;20028;-75
2022/03/28 00:51:55;;;;;;;0.20;0.20;;;;;;;10.49;76.71;101092.38;5093033;28;20020;-75
2022/03/28 00:54:21;;;;;;;0.20;0.20;;;;;;;10.41;77.08;101087.66;5092896;28;20459;-75
2022/03/28 00:56:50;;;;;;;0.20;0.20;;;;;;;10.39;77.74;101081.66;5092898;28;20020;-75
2022/03/28 00:59:17;;;;;;;0.20;0.20;;;;;;;10.35;78.22;101080.69;5092793;28;20028;-75
2022/03/28 01:01:46;;;;;;;0.20;0.20;;;;;;;10.42;78.53;101080.94;5092618;28;20032;-75
2022/03/28 01:04:12;;;;;;;0.20;0.20;;;;;;;10.39;79.15;101075.28;5092899;28;20086;-75
2022/03/28 01:06:38;;;;;;;0.20;0.20;;;;;;;10.32;78.79;101078.56;5092862;28;20028;-75
2022/03/28 01:09:05;;;;;;;0.20;0.20;;;;;;;10.30;77.92;101075.34;5092853;28;20036;-75
2022/03/28 01:11:34;;;;;;;0.20;0.20;;;;;;;10.19;78.17;101066.53;5092762;28;20051;-75
2022/03/28 01:14:00;;;;;;;0.20;0.20;;;;;;;10.13;78.60;101061.53;5092673;28;20039;-75
2022/03/28 01:18:05;;;;;;;0.20;0.20;;;;;;;10.04;79.60;101058.81;5094692;28;20050;-75
2022/03/28 01:19:24;;;;;;;0.20;0.20;;;;;;;9.98;78.88;101038.72;5093914;28;20032;-75
2022/03/28 01:21:54;;;;;;;0.20;0.20;;;;;;;9.96;79.53;101048.56;5093306;28;20031;-75
2022/03/28 01:24:23;;;;;;;0.20;0.20;;;;;;;9.96;79.73;101052.16;5095044;28;20488;-75
2022/03/28 01:26:53;;;;;;;0.20;0.20;;;;;;;9.83;79.69;101052.41;5114034;28;20069;-75
2022/03/28 01:29:40;;;;;;;0.20;0.20;;;;;;;9.88;79.74;101041.09;5095844;28;20031;-75
2022/03/28 01:32:07;;;;;;;0.20;0.20;;;;;;;9.86;80.63;101041.44;5095725;28;20022;-75
2022/03/28 01:35:07;;;;;;;0.20;0.20;;;;;;;9.80;80.12;101051.13;5096306;28;20035;-75
2022/03/28 01:37:32;;;;;;;0.20;0.20;;;;;;;9.79;80.49;101035.59;5084775;28;20126;-76
2022/03/28 01:40:01;;;;;;;0.20;0.20;;;;;;;9.81;80.53;101040.81;5096533;28;20070;-75
2022/03/28 01:42:30;;;;;;;0.20;0.20;;;;;;;9.76;80.22;101036.28;5095992;28;20088;-75
2022/03/28 01:44:59;;;;;;;0.20;0.20;;;;;;;9.78;80.71;101033.97;5096238;28;20382;-76
2022/03/28 01:47:27;;;;;;;0.20;0.20;;;;;;;9.74;81.09;101026.63;5095672;28;20103;-75
2022/03/28 01:49:56;;;;;;;0.20;0.20;;;;;;;9.71;80.40;101031.72;5098381;28;20118;-75
2022/03/28 01:52:42;;;;;;;0.20;0.20;;;;;;;9.67;80.48;101021.59;5099643;28;20027;-74
2022/03/28 01:55:09;;;;;;;0.20;0.20;;;;;;;9.76;80.36;101022.38;5099023;28;20039;-75
2022/03/28 01:57:55;;;;;;;0.20;0.20;;;;;;;9.63;79.95;101020.66;5099511;28;20027;-76
2022/03/28 02:00:23;;;;;;;0.20;0.20;;;;;;;9.65;79.27;101018.38;5099249;28;20036;-75
2022/03/28 02:02:49;;;;;;;0.20;0.20;;;;;;;9.68;80.40;101023.22;5117718;28;20056;-75
2022/03/28 02:05:24;;;;;;;0.20;0.20;;;;;;;9.74;79.75;101010.75;5099868;28;20131;-75
2022/03/28 02:07:50;;;;;;;0.20;0.20;;;;;;;9.67;80.35;101010.50;5099167;28;20030;-75
2022/03/28 02:10:18;;;;;;;0.20;0.20;;;;;;;9.79;79.97;101012.53;5099741;28;20031;-75
2022/03/28 02:12:44;;;;;;;0.20;0.20;;;;;;;9.78;80.24;101017.28;5099361;28;20024;-75
2022/03/28 02:15:14;;;;;;;0.20;0.20;;;;;;;9.89;80.46;101018.50;5099835;28;20113;-75
2022/03/28 02:17:40;;;;;;;0.20;0.20;;;;;;;9.86;79.90;101015.63;5099081;28;20032;-75
2022/03/28 02:20:08;;;;;;;0.20;0.20;;;;;;;9.98;80.59;101015.69;5099138;28;20097;-75
2022/03/28 02:22:38;;;;;;;0.20;0.20;;;;;;;9.91;80.79;101016.22;5099225;28;20489;-75
2022/03/28 02:25:05;;;;;;;0.20;0.20;;;;;;;9.96;80.31;101013.25;5099013;28;20417;-75
2022/03/28 02:27:34;;;;;;;0.20;0.20;;;;;;;9.97;80.71;101014.06;5099016;28;20035;-76
2022/03/28 02:30:05;;;;;;;0.20;0.20;;;;;;;9.95;80.86;101006.03;5098818;28;20046;-76
2022/03/28 02:32:31;;;;;;;0.20;0.20;;;;;;;9.96;81.11;101007.69;5098635;28;20028;-76
2022/03/28 02:34:56;;;;;;;0.20;0.20;;;;;;;9.91;81.16;100996.75;5099059;28;20050;-75
2022/03/28 02:37:25;;;;;;;0.20;0.20;;;;;;;9.96;81.32;100999.34;5098541;28;20023;-76
2022/03/28 02:39:53;;;;;;;0.20;0.20;;;;;;;9.82;80.32;101001.56;5098999;28;20024;-75
2022/03/28 02:42:22;;;;;;;0.20;0.20;;;;;;;9.63;79.62;100992.84;5098494;28;20026;-75
2022/03/28 02:44:52;;;;;;;0.20;0.20;;;;;;;9.58;81.39;100996.63;5098371;28;20063;-75
2022/03/28 02:47:21;;;;;;;0.20;0.20;;;;;;;9.39;81.90;100988.75;5117076;28;20020;-75
2022/03/28 02:49:47;;;;;;;0.20;0.20;;;;;;;9.33;84.07;100984.56;5098825;28;20027;-75
2022/03/28 02:52:16;;;;;;;0.20;0.20;;;;;;;9.29;84.96;100991.09;5098408;28;20065;-75
2022/03/28 02:54:45;;;;;;;0.20;0.20;;;;;;;9.29;85.12;100989.13;5098755;28;20039;-75
2022/03/28 02:57:14;;;;;;;0.20;0.20;;;;;;;9.19;85.36;100973.66;5098615;28;20424;-75
2022/03/28 02:59:42;;;;;;;0.20;0.20;;;;;;;9.23;85.01;100986.91;5099285;28;20032;-75
2022/03/28 03:02:10;;;;;;;0.20;0.20;;;;;;;9.26;85.07;100978.69;5100554;28;20047;-75
2022/03/28 03:04:36;;;;;;;0.20;0.20;;;;;;;9.27;85.04;100963.69;5104075;28;20032;-75
2022/03/28 03:07:05;;;;;;;0.20;0.20;;;;;;;9.37;85.19;100966.03;5105063;28;20028;-75
2022/03/28 03:09:30;;;;;;;0.20;0.20;;;;;;;9.27;84.01;100954.50;5122664;28;20028;-76
2022/03/28 03:11:57;;;;;;;0.20;0.20;;;;;;;9.34;83.88;100961.19;5101966;28;20027;-75
2022/03/28 03:14:23;;;;;;;0.20;0.20;;;;;;;9.41;83.11;100964.22;5097949;28;20118;-75
2022/03/28 03:16:50;;;;;;;0.20;0.20;;;;;;;9.59;82.96;100964.16;5097773;28;20023;-75
2022/03/28 03:19:16;;;;;;;0.20;0.20;;;;;;;9.58;82.38;100956.94;5098139;28;20024;-75
2022/03/28 03:21:42;;;;;;;0.20;0.20;;;;;;;9.64;82.62;100955.56;5097858;28;20032;-75
2022/03/28 03:24:08;;;;;;;0.20;0.20;;;;;;;9.61;82.52;100950.72;5098003;28;20394;-75
2022/03/28 03:26:39;;;;;;;0.20;0.20;;;;;;;9.65;82.07;100951.69;5098264;28;20039;-76
2022/03/28 03:29:04;;;;;;;0.20;0.20;;;;;;;9.65;81.51;100954.44;5097726;28;20027;-75
2022/03/28 03:31:33;;;;;;;0.20;0.20;;;;;;;9.66;81.80;100959.66;5097751;28;20110;-75
2022/03/28 03:34:01;;;;;;;0.20;0.20;;;;;;;9.76;81.56;100952.91;5098481;28;20038;-75
2022/03/28 03:36:27;;;;;;;0.20;0.20;;;;;;;9.93;81.80;100952.75;5098468;28;20019;-75
2022/03/28 03:38:52;;;;;;;0.20;0.20;;;;;;;10.03;82.25;100947.94;5099030;28;20041;-75
2022/03/28 03:41:21;;;;;;;0.20;0.20;;;;;;;10.01;81.04;100942.69;5099077;28;20033;-75
2022/03/28 03:43:50;;;;;;;0.20;0.20;;;;;;;9.97;82.07;100950.13;5099237;28;20123;-75
2022/03/28 03:46:16;;;;;;;0.20;0.20;;;;;;;9.94;81.86;100943.25;5098659;28;20084;-75
2022/03/28 03:48:44;;;;;;;0.20;0.20;;;;;;;9.90;81.61;100947.84;5097992;28;20031;-75
2022/03/28 03:51:10;;;;;;;0.20;0.20;;;;;;;9.84;81.25;100937.28;5097473;28;20085;-75
2022/03/28 03:53:38;;;;;;;0.20;0.20;;;;;;;9.92;80.85;100937.22;5097931;28;20031;-75
2022/03/28 03:56:05;;;;;;;0.20;0.20;;;;;;;10.01;81.58;100942.69;5097895;28;20036;-75
2022/03/28 03:58:33;;;;;;;0.20;0.20;;;;;;;10.12;81.20;100949.50;5098069;28;20035;-75
2022/03/28 04:01:01;;;;;;;0.20;0.20;;;;;;;10.04;80.32;100949.56;5098540;28;20470;-75
2022/03/28 04:03:32;;;;;;;0.20;0.20;;;;;;;9.95;80.89;100949.63;5098695;28;20091;-75
2022/03/28 04:05:58;;;;;;;0.20;0.20;;;;;;;10.09;80.59;100947.38;5098573;28;20035;-75
2022/03/28 04:08:24;;;;;;;0.20;0.20;;;;;;;10.06;80.54;100950.03;5099388;28;20032;-75
2022/03/28 04:10:52;;;;;;;0.20;0.20;;;;;;;10.03;80.85;100950.72;5098148;28;20023;-75
2022/03/28 04:13:18;;;;;;;0.20;0.20;;;;;;;10.02;81.04;100954.66;5097837;28;20058;-75
2022/03/28 04:15:47;;;;;;;0.20;0.20;;;;;;;10.10;80.82;100964.88;5096722;28;20122;-75
2022/03/28 04:18:15;;;;;;;0.20;0.20;;;;;;;10.13;81.89;100967.00;5097437;28;20407;-75
2022/03/28 04:20:41;;;;;;;0.20;0.20;;;;;;;10.15;82.09;100948.78;5096591;28;20027;-75
2022/03/28 04:23:09;;;;;;;0.20;0.20;;;;;;;10.19;82.47;100948.94;5097101;28;20039;-75
2022/03/28 04:25:34;;;;;;;0.20;0.20;;;;;;;10.17;81.38;100951.22;5096206;28;20058;-75
2022/03/28 04:28:00;;;;;;;0.20;0.20;;;;;;;10.11;81.58;100950.63;5096998;28;20036;-76
2022/03/28 04:30:26;;;;;;;0.20;0.20;;;;;;;9.97;80.67;100919.53;5096387;28;20030;-75
2022/03/28 04:32:55;;;;;;;0.20;0.20;;;;;;;10.14;81.21;100935.25;5096309;28;20069;-75
2022/03/28 04:35:26;;;;;;;0.20;0.20;;;;;;;10.21;81.54;100938.25;5096578;28;20055;-75
2022/03/28 04:37:51;;;;;;;0.20;0.20;;;;;;;10.27;81.22;100938.91;5096552;28;20034;-75
2022/03/28 04:40:18;;;;;;;0.20;0.20;;;;;;;10.28;80.51;100944.13;5096614;28;20032;-75
2022/03/28 04:42:45;;;;;;;0.20;0.20;;;;;;;10.23;80.18;100941.53;5096407;28;20039;-75
2022/03/28 04:45:14;;;;;;;0.20;0.20;;;;;;;10.18;80.55;100947.31;5096695;28;20023;-75
2022/03/28 04:47:40;;;;;;;0.20;0.20;;;;;;;10.18;80.95;100945.34;5096863;28;20028;-76
2022/03/28 04:50:07;;;;;;;0.20;0.20;;;;;;;10.27;80.39;100944.47;5096422;28;20046;-75
2022/03/28 04:52:36;;;;;;;0.20;0.20;;;;;;;10.27;80.90;100945.28;5096530;28;20054;-75
2022/03/28 04:55:03;;;;;;;0.20;0.20;;;;;;;10.24;81.03;100951.53;5096093;28;20028;-76
2022/03/28 04:57:31;;;;;;;0.20;0.20;;;;;;;10.22;81.55;100951.00;5096389;28;20027;-76
2022/03/28 04:59:57;;;;;;;0.20;0.20;;;;;;;10.26;81.70;100960.34;5096330;28;20116;-76
2022/03/28 05:02:23;;;;;;;0.20;0.20;;;;;;;10.26;81.94;100959.53;5079569;28;20039;-75
2022/03/28 05:04:49;;;;;;;0.20;0.20;;;;;;;10.22;82.00;100951.00;5096219;28;20031;-76
2022/03/28 05:07:28;;;;;;;0.20;0.20;;;;;;;10.26;81.92;100959.53;5096429;28;20035;-76
2022/03/28 05:09:54;;;;;;;0.20;0.20;;;;;;;10.27;81.77;100953.63;5095840;28;20036;-75
2022/03/28 05:12:24;;;;;;;0.20;0.20;;;;;;;10.29;82.14;100962.44;5095686;28;20062;-76
2022/03/28 05:14:50;;;;;;;0.20;0.20;;;;;;;10.27;82.62;100961.97;5096027;28;20024;-76
2022/03/28 05:17:27;;;;;;;0.20;0.20;;;;;;;10.26;82.61;100960.34;5095983;28;20130;-76
2022/03/28 05:19:54;;;;;;;0.20;0.20;;;;;;;10.31;82.50;100962.91;5095987;28;20122;-75
2022/03/28 05:22:21;;;;;;;0.20;0.20;;;;;;;10.33;82.27;100966.16;5095957;28;20020;-75
2022/03/28 05:24:51;;;;;;;0.20;0.20;;;;;;;10.34;82.33;100961.44;5098442;28;20043;-75
2022/03/28 05:27:20;;;;;;;0.20;0.20;;;;;;;10.17;82.79;100935.38;5118307;28;20024;-75
2022/03/28 05:29:47;;;;;;;0.20;0.20;;;;;;;10.43;82.89;100970.47;5083619;28;20032;-76
2022/03/28 05:32:15;;;;;;;0.20;0.20;;;;;;;10.41;82.97;100968.03;5100292;28;20030;-77
2022/03/28 05:34:44;;;;;;;0.20;0.20;;;;;;;10.42;82.99;100969.66;5102553;28;20032;-76
2022/03/28 05:37:16;;;;;;;0.20;0.20;;;;;;;10.48;83.45;100973.84;5104912;28;20477;-76
2022/03/28 05:39:46;;;;;;;0.20;0.20;;;;;;;10.42;82.80;100949.38;5102612;28;20023;-76
2022/03/28 05:42:16;;;;;;;0.20;0.20;;;;;;;10.51;83.51;100966.00;5100573;28;20032;-76
2022/03/28 05:44:42;;;;;;;0.20;0.20;;;;;;;10.54;82.75;100970.84;5101046;28;20028;-76
2022/03/28 05:47:09;;;;;;;0.20;0.20;;;;;;;10.46;82.73;100959.47;5100906;28;20020;-76
2022/03/28 05:49:35;;;;;;;0.20;0.20;;;;;;;10.55;82.91;100976.09;5100885;28;20031;-75
2022/03/28 05:52:04;;;;;;;0.20;0.20;;;;;;;10.54;82.66;100968.06;5100757;28;20084;-76
2022/03/28 05:54:32;;;;;;;0.20;0.20;;;;;;;10.59;82.54;100979.00;5099877;28;20027;-76
2022/03/28 05:56:58;;;;;;;0.20;0.20;;;;;;;10.59;82.32;100971.44;5099308;28;20106;-75
2022/03/28 05:59:33;;;;;;;0.20;0.20;;;;;;;10.62;81.99;100975.53;5099610;28;20051;-76
2022/03/28 06:02:01;;;;;;;0.20;0.20;;;;;;;10.65;81.46;100984.00;5100212;28;20019;-75
2022/03/28 06:04:31;;;;;;;0.20;0.20;;;;;;;10.57;79.77;100984.09;5099709;28;20031;-76
2022/03/28 06:07:07;;;;;;;0.20;0.20;;;;;;;10.51;79.97;100982.69;5099937;28;20114;-75
2022/03/28 06:09:33;;;;;;;0.20;0.20;;;;;;;10.42;78.80;100979.97;5096815;28;20039;-75
2022/03/28 06:12:00;;;;;;;0.20;0.20;;;;;;;10.46;78.34;100978.16;5099183;28;20024;-75
2022/03/28 06:14:32;;;;;;;0.20;0.20;;;;;;;10.49;77.75;100986.63;5099613;28;20050;-76
2022/03/28 06:17:00;;;;;;;0.20;0.20;;;;;;;10.55;77.39;100983.63;5099823;28;20066;-75
2022/03/28 06:19:26;;;;;;;0.20;0.20;;;;;;;10.58;77.03;100980.16;5099057;28;20047;-75
2022/03/28 06:21:51;;;;;;;0.20;0.20;;;;;;;10.69;76.89;100984.13;5099371;28;20036;-76
2022/03/28 06:24:20;;;;;;;0.20;0.20;;;;;;;10.78;77.17;100986.81;5099593;28;20122;-75
2022/03/28 06:26:49;;;;;;;0.20;0.20;;;;;;;10.86;77.19;100985.88;5098951;28;20024;-76
2022/03/28 06:29:17;;;;;;;0.20;0.20;;;;;;;10.93;76.73;100992.53;5098802;28;20470;-75
2022/03/28 06:31:46;;;;;;;0.20;0.20;;;;;;;10.95;76.78;100989.41;5100016;28;20032;-76
2022/03/28 06:34:14;;;;;;;0.20;0.20;;;;;;;11.04;76.88;100984.53;5098813;28;20039;-76
2022/03/28 06:36:57;;;;;;;0.20;0.20;;;;;;;11.08;77.15;100990.22;5092536;28;20036;-76
2022/03/28 06:39:29;;;;;;;0.20;0.20;;;;;;;11.10;78.27;100976.78;5117121;28;20059;-76
2022/03/28 06:41:57;;;;;;;0.20;0.20;;;;;;;11.18;78.77;100992.53;5098997;28;20046;-76
2022/03/28 06:44:29;;;;;;;0.20;0.20;;;;;;;11.26;78.93;100981.31;5098168;28;20031;-76
2022/03/28 06:46:58;;;;;;;0.15;0.15;;;;;;;11.34;79.73;100993.47;5099059;28;20049;-76
2022/03/28 06:49:26;;;;;;;0.20;0.20;;;;;;;11.41;80.92;100996.50;5098518;28;20058;-76
2022/03/28 06:51:57;;;;;;;0.20;0.20;;;;;;;11.38;81.19;100999.97;5098533;28;20028;-75
2022/03/28 06:54:26;;;;;;;0.20;0.20;;;;;;;11.33;80.98;100991.03;5098665;28;20051;-76
2022/03/28 06:56:54;;;;;;;0.20;0.20;;;;;;;11.33;81.31;100989.06;5099293;28;20035;-75
2022/03/28 06:59:25;;;;;;;0.20;0.20;;;;;;;11.50;80.93;101002.78;5098364;28;20028;-75
2022/03/28 07:01:57;;;;;;;0.20;0.20;;;;;;;11.57;78.49;101001.38;5098247;28;20028;-76
2022/03/28 07:04:23;;;;;;;0.20;0.20;;;;;;;11.43;79.07;101002.53;5098131;28;20106;-76
2022/03/28 07:06:49;;;;;;;0.20;0.20;;;;;;;11.42;79.54;100997.31;5098344;28;20034;-76
2022/03/28 07:09:21;;;;;;;0.20;0.20;;;;;;;11.48;78.62;100996.72;5097811;28;20028;-75
2022/03/28 07:11:46;;;;;;;0.20;0.20;;;;;;;11.48;79.33;100998.72;5098193;28;20027;-76
2022/03/28 07:14:16;;;;;;;0.20;0.20;;;;;;;11.61;79.14;100999.50;5097871;28;20084;-76
2022/03/28 07:16:45;;;;;;;0.20;0.20;;;;;;;11.62;78.85;100999.16;5098672;28;20381;-76
2022/03/28 07:19:15;;;;;;;0.20;0.20;;;;;;;11.67;78.83;100992.53;5098148;28;20040;-75
2022/03/28 07:21:44;;;;;;;0.20;0.20;;;;;;;11.74;78.54;100993.56;5098102;28;20500;-76
2022/03/28 07:24:17;;;;;;;0.20;0.20;;;;;;;11.76;79.22;100994.03;5097528;28;20028;-75
2022/03/28 07:26:48;;;;;;;0.20;0.20;;;;;;;11.78;78.20;100996.47;5098128;28;20031;-75
2022/03/28 07:29:17;;;;;;;0.20;0.20;;;;;;;11.87;78.62;100997.16;5098791;28;20130;-76
2022/03/28 07:31:52;;;;;;;0.20;0.20;;;;;;;11.97;77.09;100995.88;5092858;28;20544;-76
2022/03/28 07:34:29;;;;;;;0.20;0.20;;;;;;;12.22;75.60;100997.44;5099573;28;20035;-76
2022/03/28 07:36:59;;;;;;;0.20;0.20;;;;;;;12.10;76.20;100991.09;5096302;28;20129;-76
2022/03/28 07:39:32;;;;;;;0.20;0.20;;;;;;;12.23;75.32;100993.47;5098645;28;20038;-75
2022/03/28 07:42:02;;;;;;;0.20;0.20;;;;;;;12.18;74.44;100981.75;5097444;28;20376;-76
2022/03/28 07:44:30;;;;;;;0.20;0.20;;;;;;;12.21;74.46;101003.38;5097241;28;20134;-75
2022/03/28 07:46:56;;;;;;;0.20;0.20;;;;;;;12.36;74.64;101004.56;5096850;28;20031;-76
2022/03/28 07:49:30;;;;;;;0.20;0.20;;;;;;;12.46;72.82;101004.06;5097555;28;20034;-76
2022/03/28 07:51:58;;;;;;;0.20;0.20;;;;;;;12.55;71.46;101008.31;5098252;28;20027;-76
2022/03/28 07:54:24;;;;;;;0.20;0.20;;;;;;;12.64;71.95;101015.75;5099095;28;20130;-76
2022/03/28 07:56:55;;;;;;;0.20;0.20;;;;;;;12.70;70.51;100998.38;5099977;28;20120;-76
2022/03/28 07:59:23;;;;;;;0.20;0.20;;;;;;;13.02;69.93;101004.00;5101071;28;20027;-76
2022/03/28 08:01:51;;;;;;;0.20;0.20;;;;;;;13.20;70.28;101008.03;5103189;28;20027;-77
2022/03/28 08:04:22;;;;;;;0.20;0.20;;;;;;;13.20;69.74;101010.03;5088532;28;20134;-76
2022/03/28 08:06:50;;;;;;;0.20;0.20;;;;;;;13.34;69.54;101013.22;5099929;28;20026;-76
2022/03/28 08:09:17;;;;;;;0.20;0.20;;;;;;;13.46;68.58;101015.09;5098940;28;20039;-76
2022/03/28 08:11:46;;;;;;;0.20;0.20;;;;;;;13.47;68.46;101008.34;5098323;28;20035;-76
2022/03/28 08:14:17;;;;;;;0.20;0.20;;;;;;;13.58;67.73;101029.81;5099472;28;20024;-76
2022/03/28 08:16:49;;;;;;;0.20;0.20;;;;;;;13.37;67.01;101026.50;5099076;28;20381;-76
2022/03/28 08:19:15;;;;;;;0.20;0.20;;;;;;;13.33;65.02;101011.59;5098318;28;20027;-76
2022/03/28 08:21:43;;;;;;;0.20;0.20;;;;;;;13.41;64.22;101029.34;5098740;28;20077;-76
2022/03/28 08:24:13;;;;;;;0.20;0.20;;;;;;;13.43;64.29;101025.03;5081564;28;20432;-76
2022/03/28 08:26:44;;;;;;;0.20;0.20;;;;;;;13.59;64.41;101030.63;5098964;28;20028;-76
2022/03/28 08:29:13;;;;;;;0.20;0.20;;;;;;;13.74;64.18;101026.97;5098480;28;20028;-76
2022/03/28 08:31:42;;;;;;;0.20;0.20;;;;;;;13.90;64.61;101029.72;5099505;28;20043;-76
2022/03/28 08:34:09;;;;;;;0.20;0.20;;;;;;;13.97;63.18;101040.28;5098990;28;20027;-77
2022/03/28 08:36:38;;;;;;;0.20;0.20;;;;;;;14.08;63.44;101028.16;5099698;28;20023;-76
2022/03/28 08:39:06;;;;;;;0.20;0.20;;;;;;;14.23;62.12;101036.88;5099388;28;20112;-76
2022/03/28 08:41:39;;;;;;;0.20;0.20;;;;;;;14.19;62.59;101033.16;5098623;28;20031;-77
2022/03/28 08:44:05;;;;;;;0.20;0.20;;;;;;;14.36;60.83;101041.94;5097578;28;20024;-76
2022/03/28 08:46:36;;;;;;;0.20;0.20;;;;;;;14.56;60.97;101039.19;5098829;28;20126;-76
2022/03/28 08:49:04;;;;;;;0.20;0.20;;;;;;;14.77;59.61;101036.00;5097660;28;20084;-76
2022/03/28 08:51:36;;;;;;;0.20;0.20;;;;;;;14.97;59.59;101017.97;5097204;28;20026;-76
2022/03/28 08:54:02;;;;;;;0.20;0.20;;;;;;;14.96;58.01;101038.75;5097343;28;20116;-76
2022/03/28 08:56:30;;;;;;;0.20;0.20;;;;;;;15.12;56.56;101042.25;5097136;28;20020;-77
2022/03/28 08:58:59;;;;;;;0.20;0.20;;;;;;;15.12;57.10;101033.81;5096262;28;20069;-76
2022/03/28 09:01:28;;;;;;;0.20;0.20;;;;;;;15.02;57.85;101030.84;5097571;28;20019;-77
2022/03/28 09:03:53;;;;;;;0.20;0.20;;;;;;;15.02;58.06;101036.44;5097659;28;20037;-77
2022/03/28 09:06:32;;;;;;;0.20;0.20;;;;;;;14.99;58.07;101038.00;5097707;28;20110;-76
2022/03/28 09:09:16;;;;;;;0.20;0.20;;;;;;;15.14;58.86;101034.28;5097952;28;20477;-76
2022/03/28 09:11:47;;;;;;;0.20;0.20;;;;;;;15.08;58.79;101032.97;5101510;28;20027;-77
2022/03/28 09:14:25;;;;;;;0.20;0.20;;;;;;;15.32;57.07;101033.78;5102319;28;20055;-77
2022/03/28 09:17:04;;;;;;;0.20;0.20;;;;;;;15.44;57.31;101023.16;5101833;28;20474;-77
2022/03/28 09:19:44;;;;;;;0.20;0.20;;;;;;;15.48;57.57;101025.22;5099424;28;20024;-76
2022/03/28 09:22:16;;;;;;;0.20;0.20;;;;;;;15.85;55.69;101028.25;5099403;28;20095;-76
2022/03/28 09:24:45;;;;;;;0.20;0.20;;;;;;;15.44;57.63;101030.75;5098404;28;20116;-77
2022/03/28 09:27:31;;;;;;;0.20;0.20;;;;;;;15.55;55.96;101014.91;5099509;28;20119;-77
2022/03/28 09:30:08;;;;;;;0.20;0.20;;;;;;;15.85;56.63;101025.44;5099314;28;20081;-76
2022/03/28 09:32:47;;;;;;;0.20;0.20;;;;;;;16.28;55.40;101037.25;5097668;28;20383;-77
2022/03/28 09:35:26;;;;;;;0.20;0.20;;;;;;;16.41;54.75;101028.22;5096832;28;20047;-76
2022/03/28 09:37:56;;;;;;;0.20;0.20;;;;;;;16.49;53.80;101034.72;5095737;28;20112;-75
2022/03/28 09:40:28;;;;;;;0.20;0.20;;;;;;;16.60;53.13;101004.75;5093707;28;20177;-76
2022/03/28 09:42:54;;;;;;;0.20;0.20;;;;;;;16.79;52.85;101036.72;5095255;28;20028;-76
2022/03/28 09:45:31;;;;;;;0.20;0.20;;;;;;;16.87;53.12;101033.56;5094474;28;20024;-76
2022/03/28 09:48:11;;;;;;;0.20;0.20;;;;;;;17.18;51.75;101026.66;5093797;28;20461;-76
2022/03/28 09:51:04;;;;;;;0.20;0.20;;;;;;;17.58;52.26;101039.06;5092203;28;20072;-76
2022/03/28 09:53:38;;;;;;;0.20;0.20;;;;;;;17.70;49.65;101027.50;5093552;28;20063;-76
2022/03/28 09:56:11;;;;;;;0.20;0.20;;;;;;;17.72;48.29;101027.09;5092399;28;20119;-76
2022/03/28 09:58:47;;;;;;;0.20;0.20;;;;;;;17.64;48.19;101019.81;5093116;28;20067;-76
2022/03/28 10:01:21;;;;;;;0.20;0.20;;;;;;;17.60;49.04;101016.97;5093467;28;20481;-76
2022/03/28 10:03:49;;;;;;;0.20;0.20;;;;;;;17.00;50.16;101025.69;5093336;28;20088;-76
2022/03/28 10:06:15;;;;;;;0.20;0.20;;;;;;;17.45;48.11;101018.84;5093954;28;20108;-76
2022/03/28 10:08:44;;;;;;;0.20;0.20;;;;;;;17.53;49.70;101019.75;5093531;28;20024;-76
2022/03/28 10:11:14;;;;;;;0.20;0.20;;;;;;;18.43;47.28;101010.66;5095226;28;20024;-76
2022/03/28 10:13:43;;;;;;;0.20;0.20;;;;;;;19.11;45.31;101014.44;5095259;28;20081;-76
2022/03/28 10:16:12;;;;;;;0.20;0.20;;;;;;;18.06;46.33;101008.06;5096097;28;20130;-77
2022/03/28 10:18:44;;;;;;;0.20;0.20;;;;;;;18.95;44.11;101011.19;5079271;28;20070;-77
2022/03/28 10:21:31;;;;;;;0.20;0.20;;;;;;;19.37;43.53;101010.44;5097087;28;20031;-76
2022/03/28 10:24:38;;;;;;;0.20;0.20;;;;;;;19.67;43.33;101006.44;5095513;28;20110;-76
2022/03/28 10:27:05;;;;;;;0.20;0.20;;;;;;;20.03;40.45;101000.72;5091509;28;20143;-74
2022/03/28 10:29:38;;;;;;;0.20;0.20;;;;;;;20.03;40.57;100975.28;5077773;28;20105;-74
2022/03/28 10:32:15;;;;;;;0.20;0.20;;;;;;;20.55;40.70;101001.72;5095039;28;20024;-74
2022/03/28 10:34:56;;;;;;;0.20;0.20;;;;;;;20.83;39.51;100971.69;5094583;28;20059;-74
2022/03/28 10:37:29;;;;;;;0.10;0.10;;;;;;;19.66;40.68;100945.53;5096153;28;20073;-74
2022/03/28 10:40:16;;;;;;;0.20;0.20;;;;;;;19.21;42.31;100992.28;5097176;28;20028;-76
2022/03/28 10:43:02;;;;;;;0.10;0.10;;;;;;;19.26;42.23;100995.53;5098647;28;20035;-77
2022/03/28 10:45:50;;;;;;;0.20;0.20;;;;;;;19.05;43.30;100985.03;5095002;28;20530;-76
2022/03/28 10:48:17;;;;;;;0.20;0.20;;;;;;;18.91;42.95;100996.31;5095296;28;20347;-76
2022/03/28 10:50:51;;;;;;;0.20;0.20;;;;;;;18.74;43.77;100992.22;5094324;28;20051;-76
2022/03/28 10:53:29;;;;;;;0.10;0.10;;;;;;;18.90;43.28;100982.59;5094221;28;20040;-76
2022/03/28 10:56:05;;;;;;;0.10;0.10;;;;;;;18.67;44.16;100992.19;5094663;28;20055;-74
2022/03/28 10:58:37;;;;;;;0.10;0.10;;;;;;;18.18;44.91;100992.81;5094178;28;20035;-76
2022/03/28 11:01:09;;;;;;;0.10;0.10;;;;;;;17.72;46.73;100979.25;5094414;28;20047;-76
2022/03/28 11:03:46;;;;;;;0.10;0.10;;;;;;;17.79;46.96;100982.16;5094801;28;20047;-76
2022/03/28 11:06:36;;;;;;;0.20;0.20;;;;;;;18.07;46.51;100978.69;5094343;28;20470;-76
2022/03/28 11:09:02;;;;;;;0.20;0.20;;;;;;;17.97;46.85;100971.00;5093486;28;20020;-76
2022/03/28 11:11:32;;;;;;;0.20;0.20;;;;;;;17.89;46.54;100978.56;5094462;28;20034;-76
2022/03/28 11:14:12;;;;;;;0.20;0.20;;;;;;;18.05;46.41;100967.00;5094134;28;20027;-76
2022/03/28 11:16:51;;;;;;;0.20;0.20;;;;;;;18.05;47.39;100973.44;5094087;28;20032;-76
2022/03/28 11:19:23;;;;;;;0.20;0.20;;;;;;;17.55;47.58;100969.50;5095054;28;20020;-76
2022/03/28 11:22:04;;;;;;;0.20;0.20;;;;;;;17.55;48.04;100961.88;5096066;28;20116;-76
2022/03/28 11:24:56;;;;;;;0.20;0.20;;;;;;;17.33;48.70;100936.78;5097222;28;20055;-76
2022/03/28 11:27:30;;;;;;;0.20;0.20;;;;;;;17.41;47.68;100955.31;5097879;28;20358;-76
2022/03/28 11:30:03;;;;;;;0.20;0.20;;;;;;;17.53;47.13;100957.84;5097773;28;20035;-75
2022/03/28 11:32:35;;;;;;;0.20;0.20;;;;;;;17.46;47.67;100957.78;5097159;28;20024;-76
2022/03/28 11:35:01;;;;;;;0.10;0.10;;;;;;;17.77;48.25;100954.38;5097827;28;20031;-76
2022/03/28 11:37:28;;;;;;;0.20;0.20;;;;;;;17.72;46.95;100949.13;5097440;28;20096;-76
2022/03/28 11:40:02;;;;;;;0.20;0.20;;;;;;;17.64;48.29;100961.53;5097547;28;20465;-76